sensor_id;sensor_type;location;lat;lon;timestamp;temperature;humidity
51337;DHT22;37421;51.176;17.196;2022-11-20T00:02:22;14.60;81.00
51337;DHT22;37421;51.176;17.196;2022-11-20T00:04:57;15.30;78.60
51337;DHT22;37421;51.176;17.196;2022-11-20T00:07:29;15.50;77.90
51337;DHT22;37421;51.176;17.196;2022-11-20T00:09:57;14.90;80.00
51337;DHT22;37421;51.176;17.196;2022-11-20T00:12:29;14.50;81.10
51337;DHT22;37421;51.176;17.196;2022-11-20T00:15:01;14.60;81.30
51337;DHT22;37421;51.176;17.196;2022-11-20T00:17:35;15.20;79.60
51337;DHT22;37421;51.176;17.196;2022-11-20T00:20:08;15.50;78.10
51337;DHT22;37421;51.176;17.196;2022-11-20T00:22:34;14.90;79.20
51337;DHT22;37421;51.176;17.196;2022-11-20T00:25:03;14.60;79.80
51337;DHT22;37421;51.176;17.196;2022-11-20T00:27:35;14.60;80.50
51337;DHT22;37421;51.176;17.196;2022-11-20T00:30:01;15.20;78.80
51337;DHT22;37421;51.176;17.196;2022-11-20T00:32:27;15.50;77.90
51337;DHT22;37421;51.176;17.196;2022-11-20T00:34:59;14.90;79.10
51337;DHT22;37421;51.176;17.196;2022-11-20T00:37:32;14.60;80.20
51337;DHT22;37421;51.176;17.196;2022-11-20T00:40:00;14.60;80.80
51337;DHT22;37421;51.176;17.196;2022-11-20T00:42:29;15.30;78.40
51337;DHT22;37421;51.176;17.196;2022-11-20T00:44:58;15.60;77.20
51337;DHT22;37421;51.176;17.196;2022-11-20T00:47:26;15.00;78.30
51337;DHT22;37421;51.176;17.196;2022-11-20T00:49:55;14.60;79.70
51337;DHT22;37421;51.176;17.196;2022-11-20T00:52:21;14.60;80.60
51337;DHT22;37421;51.176;17.196;2022-11-20T00:54:51;15.20;79.20
51337;DHT22;37421;51.176;17.196;2022-11-20T00:57:17;15.60;77.60
51337;DHT22;37421;51.176;17.196;2022-11-20T00:59:52;14.90;79.10
51337;DHT22;37421;51.176;17.196;2022-11-20T01:02:22;14.60;80.50
51337;DHT22;37421;51.176;17.196;2022-11-20T01:04:55;14.60;81.00
51337;DHT22;37421;51.176;17.196;2022-11-20T01:07:21;15.30;78.80
51337;DHT22;37421;51.176;17.196;2022-11-20T01:09:46;15.40;78.20
51337;DHT22;37421;51.176;17.196;2022-11-20T01:12:16;14.90;79.80
51337;DHT22;37421;51.176;17.196;2022-11-20T01:14:47;14.50;80.40
51337;DHT22;37421;51.176;17.196;2022-11-20T01:17:16;14.60;80.70
51337;DHT22;37421;51.176;17.196;2022-11-20T01:19:42;15.30;79.00
51337;DHT22;37421;51.176;17.196;2022-11-20T01:22:11;15.50;78.00
51337;DHT22;37421;51.176;17.196;2022-11-20T01:24:43;14.90;79.60
51337;DHT22;37421;51.176;17.196;2022-11-20T01:27:09;14.50;81.00
51337;DHT22;37421;51.176;17.196;2022-11-20T01:29:35;14.50;81.20
51337;DHT22;37421;51.176;17.196;2022-11-20T01:32:03;15.10;79.30
51337;DHT22;37421;51.176;17.196;2022-11-20T01:34:29;15.40;78.10
51337;DHT22;37421;51.176;17.196;2022-11-20T01:36:55;14.80;79.70
51337;DHT22;37421;51.176;17.196;2022-11-20T01:39:25;14.40;81.30
51337;DHT22;37421;51.176;17.196;2022-11-20T01:42:01;14.40;81.70
51337;DHT22;37421;51.176;17.196;2022-11-20T01:44:55;15.10;79.50
51337;DHT22;37421;51.176;17.196;2022-11-20T01:47:34;15.20;78.70
51337;DHT22;37421;51.176;17.196;2022-11-20T01:52:44;14.20;81.60
51337;DHT22;37421;51.176;17.196;2022-11-20T01:55:20;14.50;80.70
51337;DHT22;37421;51.176;17.196;2022-11-20T01:57:48;15.10;78.60
51337;DHT22;37421;51.176;17.196;2022-11-20T02:00:17;14.90;79.10
51337;DHT22;37421;51.176;17.196;2022-11-20T02:02:54;14.30;80.80
51337;DHT22;37421;51.176;17.196;2022-11-20T02:05:24;14.10;81.60
51337;DHT22;37421;51.176;17.196;2022-11-20T02:07:52;14.60;81.20
51337;DHT22;37421;51.176;17.196;2022-11-20T02:10:22;15.10;78.50
51337;DHT22;37421;51.176;17.196;2022-11-20T02:12:52;14.60;79.40
51337;DHT22;37421;51.176;17.196;2022-11-20T02:15:41;14.10;81.40
51337;DHT22;37421;51.176;17.196;2022-11-20T02:18:08;14.10;82.10
51337;DHT22;37421;51.176;17.196;2022-11-20T02:20:34;14.70;79.90
51337;DHT22;37421;51.176;17.196;2022-11-20T02:25:49;14.40;79.80
51337;DHT22;37421;51.176;17.196;2022-11-20T02:28:17;13.90;81.70
51337;DHT22;37421;51.176;17.196;2022-11-20T02:30:43;14.10;81.20
51337;DHT22;37421;51.176;17.196;2022-11-20T02:33:15;14.80;79.60
51337;DHT22;37421;51.176;17.196;2022-11-20T02:35:45;14.70;78.90
51337;DHT22;37421;51.176;17.196;2022-11-20T02:38:11;14.10;81.10
51337;DHT22;37421;51.176;17.196;2022-11-20T02:40:57;13.80;82.60
51337;DHT22;37421;51.176;17.196;2022-11-20T02:43:28;14.30;81.00
51337;DHT22;37421;51.176;17.196;2022-11-20T02:45:54;14.80;79.20
51337;DHT22;37421;51.176;17.196;2022-11-20T02:48:22;14.30;79.80
51337;DHT22;37421;51.176;17.196;2022-11-20T02:50:54;13.90;81.90
51337;DHT22;37421;51.176;17.196;2022-11-20T02:53:23;13.80;82.50
51337;DHT22;37421;51.176;17.196;2022-11-20T02:55:48;14.40;80.10
51337;DHT22;37421;51.176;17.196;2022-11-20T02:58:17;14.70;78.40
51337;DHT22;37421;51.176;17.196;2022-11-20T03:00:46;14.10;79.80
51337;DHT22;37421;51.176;17.196;2022-11-20T03:03:12;13.70;82.00
51337;DHT22;37421;51.176;17.196;2022-11-20T03:05:38;13.90;82.00
51337;DHT22;37421;51.176;17.196;2022-11-20T03:08:04;14.50;79.90
51337;DHT22;37421;51.176;17.196;2022-11-20T03:10:30;14.50;79.50
51337;DHT22;37421;51.176;17.196;2022-11-20T03:12:56;13.90;80.90
51337;DHT22;37421;51.176;17.196;2022-11-20T03:15:25;13.60;81.80
51337;DHT22;37421;51.176;17.196;2022-11-20T03:17:58;14.00;81.00
51337;DHT22;37421;51.176;17.196;2022-11-20T03:20:24;14.60;78.60
51337;DHT22;37421;51.176;17.196;2022-11-20T03:22:54;14.30;78.70
51337;DHT22;37421;51.176;17.196;2022-11-20T03:25:21;13.70;80.60
51337;DHT22;37421;51.176;17.196;2022-11-20T03:27:49;13.60;81.10
51337;DHT22;37421;51.176;17.196;2022-11-20T03:30:17;14.20;78.80
51337;DHT22;37421;51.176;17.196;2022-11-20T03:32:43;14.50;76.90
51337;DHT22;37421;51.176;17.196;2022-11-20T03:35:12;13.90;78.40
51337;DHT22;37421;51.176;17.196;2022-11-20T03:37:38;13.50;79.90
51337;DHT22;37421;51.176;17.196;2022-11-20T03:40:04;13.80;80.00
51337;DHT22;37421;51.176;17.196;2022-11-20T03:42:31;14.30;77.30
51337;DHT22;37421;51.176;17.196;2022-11-20T03:45:13;14.20;77.20
51337;DHT22;37421;51.176;17.196;2022-11-20T03:47:41;13.60;78.90
51337;DHT22;37421;51.176;17.196;2022-11-20T03:50:09;13.50;79.20
51337;DHT22;37421;51.176;17.196;2022-11-20T03:52:35;14.20;77.60
51337;DHT22;37421;51.176;17.196;2022-11-20T03:55:29;14.50;76.60
51337;DHT22;37421;51.176;17.196;2022-11-20T03:57:54;14.00;78.40
51337;DHT22;37421;51.176;17.196;2022-11-20T04:00:21;13.80;79.30
51337;DHT22;37421;51.176;17.196;2022-11-20T04:02:47;14.40;77.60
51337;DHT22;37421;51.176;17.196;2022-11-20T04:05:13;14.90;75.80
51337;DHT22;37421;51.176;17.196;2022-11-20T04:07:42;14.40;76.60
51337;DHT22;37421;51.176;17.196;2022-11-20T04:10:09;14.00;78.10
51337;DHT22;37421;51.176;17.196;2022-11-20T04:12:38;14.20;77.60
51337;DHT22;37421;51.176;17.196;2022-11-20T04:15:07;14.80;75.70
51337;DHT22;37421;51.176;17.196;2022-11-20T04:17:35;14.70;75.20
51337;DHT22;37421;51.176;17.196;2022-11-20T04:20:02;14.20;76.70
51337;DHT22;37421;51.176;17.196;2022-11-20T04:22:28;14.00;77.20
51337;DHT22;37421;51.176;17.196;2022-11-20T04:24:57;14.60;76.30
51337;DHT22;37421;51.176;17.196;2022-11-20T04:27:24;15.00;74.90
51337;DHT22;37421;51.176;17.196;2022-11-20T04:29:49;14.50;76.10
51337;DHT22;37421;51.176;17.196;2022-11-20T04:32:19;14.10;77.60
51337;DHT22;37421;51.176;17.196;2022-11-20T04:34:45;14.40;76.80
51337;DHT22;37421;51.176;17.196;2022-11-20T04:37:13;14.90;74.80
51337;DHT22;37421;51.176;17.196;2022-11-20T04:39:39;14.80;75.50
51337;DHT22;37421;51.176;17.196;2022-11-20T04:42:05;14.20;77.00
51337;DHT22;37421;51.176;17.196;2022-11-20T04:44:49;14.10;77.80
51337;DHT22;37421;51.176;17.196;2022-11-20T04:47:18;14.80;75.90
51337;DHT22;37421;51.176;17.196;2022-11-20T04:49:44;15.00;74.60
51337;DHT22;37421;51.176;17.196;2022-11-20T04:52:10;14.50;76.00
51337;DHT22;37421;51.176;17.196;2022-11-20T04:54:36;14.10;77.20
51337;DHT22;37421;51.176;17.196;2022-11-20T04:57:02;14.50;75.90
51337;DHT22;37421;51.176;17.196;2022-11-20T04:59:28;15.00;73.60
51337;DHT22;37421;51.176;17.196;2022-11-20T05:01:54;14.70;73.60
51337;DHT22;37421;51.176;17.196;2022-11-20T05:04:20;14.20;75.80
51337;DHT22;37421;51.176;17.196;2022-11-20T05:06:46;14.30;76.30
51337;DHT22;37421;51.176;17.196;2022-11-20T05:09:12;14.90;74.30
51337;DHT22;37421;51.176;17.196;2022-11-20T05:11:40;15.00;73.70
51337;DHT22;37421;51.176;17.196;2022-11-20T05:14:09;14.40;75.20
51337;DHT22;37421;51.176;17.196;2022-11-20T05:16:37;14.20;76.90
51337;DHT22;37421;51.176;17.196;2022-11-20T05:19:04;14.70;76.00
51337;DHT22;37421;51.176;17.196;2022-11-20T05:21:30;15.10;74.60
51337;DHT22;37421;51.176;17.196;2022-11-20T05:23:57;14.70;75.40
51337;DHT22;37421;51.176;17.196;2022-11-20T05:26:24;14.20;76.70
51337;DHT22;37421;51.176;17.196;2022-11-20T05:28:50;14.40;76.90
51337;DHT22;37421;51.176;17.196;2022-11-20T05:31:22;15.00;74.70
51337;DHT22;37421;51.176;17.196;2022-11-20T05:33:48;14.90;74.70
51337;DHT22;37421;51.176;17.196;2022-11-20T05:36:20;14.30;76.10
51337;DHT22;37421;51.176;17.196;2022-11-20T05:38:49;14.20;76.90
51337;DHT22;37421;51.176;17.196;2022-11-20T05:41:17;14.80;74.80
51337;DHT22;37421;51.176;17.196;2022-11-20T05:44:01;15.10;73.10
51337;DHT22;37421;51.176;17.196;2022-11-20T05:46:27;14.50;74.10
51337;DHT22;37421;51.176;17.196;2022-11-20T05:48:58;14.20;75.40
51337;DHT22;37421;51.176;17.196;2022-11-20T05:51:27;14.60;74.60
51337;DHT22;37421;51.176;17.196;2022-11-20T05:53:56;15.10;72.40
51337;DHT22;37421;51.176;17.196;2022-11-20T05:56:25;14.70;73.60
51337;DHT22;37421;51.176;17.196;2022-11-20T05:58:51;14.20;75.50
51337;DHT22;37421;51.176;17.196;2022-11-20T06:01:20;14.40;75.90
51337;DHT22;37421;51.176;17.196;2022-11-20T06:03:47;15.00;73.60
51337;DHT22;37421;51.176;17.196;2022-11-20T06:06:16;14.90;73.70
51337;DHT22;37421;51.176;17.196;2022-11-20T06:08:45;14.40;75.60
51337;DHT22;37421;51.176;17.196;2022-11-20T06:11:12;14.30;76.10
51337;DHT22;37421;51.176;17.196;2022-11-20T06:13:39;14.90;75.10
51337;DHT22;37421;51.176;17.196;2022-11-20T06:16:05;15.10;73.90
51337;DHT22;37421;51.176;17.196;2022-11-20T06:18:35;14.60;75.10
51337;DHT22;37421;51.176;17.196;2022-11-20T06:21:10;14.20;77.20
51337;DHT22;37421;51.176;17.196;2022-11-20T06:23:43;14.60;76.60
51337;DHT22;37421;51.176;17.196;2022-11-20T06:26:11;15.10;74.40
51337;DHT22;37421;51.176;17.196;2022-11-20T06:28:41;14.70;75.30
51337;DHT22;37421;51.176;17.196;2022-11-20T06:31:12;14.20;76.60
51337;DHT22;37421;51.176;17.196;2022-11-20T06:33:41;14.40;76.30
51337;DHT22;37421;51.176;17.196;2022-11-20T06:36:11;15.00;74.50
51337;DHT22;37421;51.176;17.196;2022-11-20T06:38:43;15.00;73.80
51337;DHT22;37421;51.176;17.196;2022-11-20T06:41:20;14.40;75.20
51337;DHT22;37421;51.176;17.196;2022-11-20T06:43:57;14.30;75.90
51337;DHT22;37421;51.176;17.196;2022-11-20T06:46:28;14.90;73.50
51337;DHT22;37421;51.176;17.196;2022-11-20T06:48:57;15.00;72.60
51337;DHT22;37421;51.176;17.196;2022-11-20T06:51:24;14.40;74.10
51337;DHT22;37421;51.176;17.196;2022-11-20T06:53:55;14.30;75.10
51337;DHT22;37421;51.176;17.196;2022-11-20T06:56:24;14.80;73.70
51337;DHT22;37421;51.176;17.196;2022-11-20T06:58:53;15.10;72.40
51337;DHT22;37421;51.176;17.196;2022-11-20T07:01:22;14.60;73.80
51337;DHT22;37421;51.176;17.196;2022-11-20T07:03:49;14.20;75.60
51337;DHT22;37421;51.176;17.196;2022-11-20T07:06:16;14.60;75.20
51337;DHT22;37421;51.176;17.196;2022-11-20T07:08:50;15.10;74.10
51337;DHT22;37421;51.176;17.196;2022-11-20T07:11:19;14.80;75.30
51337;DHT22;37421;51.176;17.196;2022-11-20T07:13:49;14.40;77.30
51337;DHT22;37421;51.176;17.196;2022-11-20T07:16:17;14.40;77.90
51337;DHT22;37421;51.176;17.196;2022-11-20T07:18:43;15.00;76.60
51337;DHT22;37421;51.176;17.196;2022-11-20T07:21:10;15.20;76.00
51337;DHT22;37421;51.176;17.196;2022-11-20T07:23:39;14.60;77.70
51337;DHT22;37421;51.176;17.196;2022-11-20T07:26:10;14.30;79.40
51337;DHT22;37421;51.176;17.196;2022-11-20T07:28:44;14.70;79.10
51337;DHT22;37421;51.176;17.196;2022-11-20T07:31:15;15.30;77.30
51337;DHT22;37421;51.176;17.196;2022-11-20T07:33:51;15.00;78.00
51337;DHT22;37421;51.176;17.196;2022-11-20T07:36:17;14.50;80.40
51337;DHT22;37421;51.176;17.196;2022-11-20T07:38:43;14.30;81.50
51337;DHT22;37421;51.176;17.196;2022-11-20T07:41:12;14.90;80.10
51337;DHT22;37421;51.176;17.196;2022-11-20T07:44:01;15.30;78.90
51337;DHT22;37421;51.176;17.196;2022-11-20T07:46:35;14.70;80.30
51337;DHT22;37421;51.176;17.196;2022-11-20T07:49:05;14.30;82.30
51337;DHT22;37421;51.176;17.196;2022-11-20T07:51:35;14.30;83.20
51337;DHT22;37421;51.176;17.196;2022-11-20T07:54:07;14.90;81.40
51337;DHT22;37421;51.176;17.196;2022-11-20T07:56:39;15.30;79.90
51337;DHT22;37421;51.176;17.196;2022-11-20T07:59:13;14.60;81.40
51337;DHT22;37421;51.176;17.196;2022-11-20T08:01:45;14.20;83.50
51337;DHT22;37421;51.176;17.196;2022-11-20T08:04:13;14.20;84.50
51337;DHT22;37421;51.176;17.196;2022-11-20T08:06:47;14.80;82.60
51337;DHT22;37421;51.176;17.196;2022-11-20T08:09:17;15.20;81.20
51337;DHT22;37421;51.176;17.196;2022-11-20T08:11:45;14.60;82.60
51337;DHT22;37421;51.176;17.196;2022-11-20T08:14:35;14.20;84.20
51337;DHT22;37421;51.176;17.196;2022-11-20T08:17:09;14.00;85.30
51337;DHT22;37421;51.176;17.196;2022-11-20T08:19:35;14.60;84.00
51337;DHT22;37421;51.176;17.196;2022-11-20T08:22:18;15.10;82.00
51337;DHT22;37421;51.176;17.196;2022-11-20T08:24:50;14.70;83.30
51337;DHT22;37421;51.176;17.196;2022-11-20T08:27:25;14.20;85.90
51337;DHT22;37421;51.176;17.196;2022-11-20T08:30:15;14.00;87.30
51337;DHT22;37421;51.176;17.196;2022-11-20T08:32:44;14.20;87.40
51337;DHT22;37421;51.176;17.196;2022-11-20T08:35:25;15.00;85.10
51337;DHT22;37421;51.176;17.196;2022-11-20T08:38:00;15.10;83.60
51337;DHT22;37421;51.176;17.196;2022-11-20T08:40:40;14.40;86.20
51337;DHT22;37421;51.176;17.196;2022-11-20T08:43:32;14.00;88.50
51337;DHT22;37421;51.176;17.196;2022-11-20T08:46:00;13.90;88.90
51337;DHT22;37421;51.176;17.196;2022-11-20T08:48:29;14.10;87.80
51337;DHT22;37421;51.176;17.196;2022-11-20T08:51:03;14.80;84.80
51337;DHT22;37421;51.176;17.196;2022-11-20T08:53:43;15.00;83.60
51337;DHT22;37421;51.176;17.196;2022-11-20T08:56:16;14.40;86.00
51337;DHT22;37421;51.176;17.196;2022-11-20T08:58:46;14.00;87.70
51337;DHT22;37421;51.176;17.196;2022-11-20T09:01:15;13.90;88.60
51337;DHT22;37421;51.176;17.196;2022-11-20T09:04:03;13.90;89.00
51337;DHT22;37421;51.176;17.196;2022-11-20T09:06:33;13.90;88.70
51337;DHT22;37421;51.176;17.196;2022-11-20T09:09:07;14.70;87.30
51337;DHT22;37421;51.176;17.196;2022-11-20T09:11:37;15.10;85.50
51337;DHT22;37421;51.176;17.196;2022-11-20T09:14:13;14.60;86.40
51337;DHT22;37421;51.176;17.196;2022-11-20T09:16:45;14.00;88.00
51337;DHT22;37421;51.176;17.196;2022-11-20T09:19:14;13.90;89.60
51337;DHT22;37421;51.176;17.196;2022-11-20T09:22:06;13.80;90.00
51337;DHT22;37421;51.176;17.196;2022-11-20T09:24:45;13.80;90.20
51337;DHT22;37421;51.176;17.196;2022-11-20T09:27:16;13.80;90.50
51337;DHT22;37421;51.176;17.196;2022-11-20T09:29:57;13.80;90.40
51337;DHT22;37421;51.176;17.196;2022-11-20T09:32:27;13.80;90.40
51337;DHT22;37421;51.176;17.196;2022-11-20T09:35:07;13.80;90.50
51337;DHT22;37421;51.176;17.196;2022-11-20T09:37:43;13.80;90.70
51337;DHT22;37421;51.176;17.196;2022-11-20T09:40:53;13.80;90.70
51337;DHT22;37421;51.176;17.196;2022-11-20T09:47:08;13.80;91.10
51337;DHT22;37421;51.176;17.196;2022-11-20T09:50:12;13.80;90.90
51337;DHT22;37421;51.176;17.196;2022-11-20T09:53:12;13.80;91.20
51337;DHT22;37421;51.176;17.196;2022-11-20T09:55:49;13.80;91.10
51337;DHT22;37421;51.176;17.196;2022-11-20T09:58:36;13.80;90.60
51337;DHT22;37421;51.176;17.196;2022-11-20T10:01:16;13.80;90.50
51337;DHT22;37421;51.176;17.196;2022-11-20T10:04:09;13.80;90.50
51337;DHT22;37421;51.176;17.196;2022-11-20T10:09:34;13.90;90.00
51337;DHT22;37421;51.176;17.196;2022-11-20T10:15:21;13.90;90.20
51337;DHT22;37421;51.176;17.196;2022-11-20T10:23:57;13.90;90.20
51337;DHT22;37421;51.176;17.196;2022-11-20T10:29:26;13.90;89.70
51337;DHT22;37421;51.176;17.196;2022-11-20T10:32:09;13.90;90.30
51337;DHT22;37421;51.176;17.196;2022-11-20T10:34:53;13.90;90.60
51337;DHT22;37421;51.176;17.196;2022-11-20T10:37:33;13.90;90.70
51337;DHT22;37421;51.176;17.196;2022-11-20T10:40:29;13.90;90.50
51337;DHT22;37421;51.176;17.196;2022-11-20T10:43:37;13.80;90.80
51337;DHT22;37421;51.176;17.196;2022-11-20T10:46:19;13.80;90.90
51337;DHT22;37421;51.176;17.196;2022-11-20T10:48:48;13.70;91.30
51337;DHT22;37421;51.176;17.196;2022-11-20T10:57:51;13.70;90.70
51337;DHT22;37421;51.176;17.196;2022-11-20T11:00:22;13.70;91.40
51337;DHT22;37421;51.176;17.196;2022-11-20T11:02:50;13.70;91.40
51337;DHT22;37421;51.176;17.196;2022-11-20T11:08:17;13.70;91.10
51337;DHT22;37421;51.176;17.196;2022-11-20T11:11:07;13.70;91.30
51337;DHT22;37421;51.176;17.196;2022-11-20T11:13:40;13.70;91.40
51337;DHT22;37421;51.176;17.196;2022-11-20T11:16:25;13.70;92.00
51337;DHT22;37421;51.176;17.196;2022-11-20T11:19:16;13.70;92.10
51337;DHT22;37421;51.176;17.196;2022-11-20T11:21:59;13.80;91.60
51337;DHT22;37421;51.176;17.196;2022-11-20T11:24:29;13.90;91.00
51337;DHT22;37421;51.176;17.196;2022-11-20T11:27:00;14.10;90.50
51337;DHT22;37421;51.176;17.196;2022-11-20T11:29:37;14.20;90.10
51337;DHT22;37421;51.176;17.196;2022-11-20T11:32:15;14.20;90.20
51337;DHT22;37421;51.176;17.196;2022-11-20T11:34:57;14.30;90.10
51337;DHT22;37421;51.176;17.196;2022-11-20T11:37:32;14.30;90.10
51337;DHT22;37421;51.176;17.196;2022-11-20T11:40:21;14.30;90.00
51337;DHT22;37421;51.176;17.196;2022-11-20T11:43:23;14.40;90.20
51337;DHT22;37421;51.176;17.196;2022-11-20T11:54:39;14.50;88.40
51337;DHT22;37421;51.176;17.196;2022-11-20T12:00:13;14.60;87.60
51337;DHT22;37421;51.176;17.196;2022-11-20T12:04:21;14.60;88.30
51337;DHT22;37421;51.176;17.196;2022-11-20T12:06:15;14.60;88.40
51337;DHT22;37421;51.176;17.196;2022-11-20T12:08:57;14.70;87.50
51337;DHT22;37421;51.176;17.196;2022-11-20T12:14:37;14.80;86.80
51337;DHT22;37421;51.176;17.196;2022-11-20T12:17:11;14.80;87.50
51337;DHT22;37421;51.176;17.196;2022-11-20T12:19:46;14.80;86.30
51337;DHT22;37421;51.176;17.196;2022-11-20T12:30:18;14.80;85.60
51337;DHT22;37421;51.176;17.196;2022-11-20T12:36:00;14.90;84.40
51337;DHT22;37421;51.176;17.196;2022-11-20T12:41:44;15.00;84.90
51337;DHT22;37421;51.176;17.196;2022-11-20T12:48:12;15.00;86.50
51337;DHT22;37421;51.176;17.196;2022-11-20T12:59:27;15.00;86.90
51337;DHT22;37421;51.176;17.196;2022-11-20T13:07:35;15.00;87.40
51337;DHT22;37421;51.176;17.196;2022-11-20T13:10:04;15.00;87.60
51337;DHT22;37421;51.176;17.196;2022-11-20T13:12:55;15.00;87.40
51337;DHT22;37421;51.176;17.196;2022-11-20T13:15:57;15.00;87.00
51337;DHT22;37421;51.176;17.196;2022-11-20T13:18:35;15.00;87.40
51337;DHT22;37421;51.176;17.196;2022-11-20T13:21:17;15.10;87.70
51337;DHT22;37421;51.176;17.196;2022-11-20T13:27:26;15.10;87.40
51337;DHT22;37421;51.176;17.196;2022-11-20T13:33:06;15.10;88.30
51337;DHT22;37421;51.176;17.196;2022-11-20T13:36:47;15.10;87.60
51337;DHT22;37421;51.176;17.196;2022-11-20T13:38:53;15.10;87.70
51337;DHT22;37421;51.176;17.196;2022-11-20T13:44:53;15.10;87.70
51337;DHT22;37421;51.176;17.196;2022-11-20T13:47:33;15.20;87.50
51337;DHT22;37421;51.176;17.196;2022-11-20T13:50:08;15.20;88.20
51337;DHT22;37421;51.176;17.196;2022-11-20T13:55:59;15.20;87.70
51337;DHT22;37421;51.176;17.196;2022-11-20T14:01:32;15.20;86.10
51337;DHT22;37421;51.176;17.196;2022-11-20T14:04:06;15.20;85.70
51337;DHT22;37421;51.176;17.196;2022-11-20T14:06:42;15.20;86.00
51337;DHT22;37421;51.176;17.196;2022-11-20T14:09:27;15.20;85.50
51337;DHT22;37421;51.176;17.196;2022-11-20T14:12:00;15.20;85.30
51337;DHT22;37421;51.176;17.196;2022-11-20T14:14:31;15.20;85.60
51337;DHT22;37421;51.176;17.196;2022-11-20T14:17:47;15.20;85.60
51337;DHT22;37421;51.176;17.196;2022-11-20T14:20:04;15.20;85.80
51337;DHT22;37421;51.176;17.196;2022-11-20T14:22:33;15.20;85.90
51337;DHT22;37421;51.176;17.196;2022-11-20T14:28:29;15.10;85.60
51337;DHT22;37421;51.176;17.196;2022-11-20T14:31:18;15.10;85.60
51337;DHT22;37421;51.176;17.196;2022-11-20T14:34:05;15.10;85.50
51337;DHT22;37421;51.176;17.196;2022-11-20T14:42:30;15.10;85.80
51337;DHT22;37421;51.176;17.196;2022-11-20T14:45:03;15.10;85.50
51337;DHT22;37421;51.176;17.196;2022-11-20T14:47:35;15.10;85.80
51337;DHT22;37421;51.176;17.196;2022-11-20T14:50:18;15.10;85.70
51337;DHT22;37421;51.176;17.196;2022-11-20T14:53:04;15.10;86.60
51337;DHT22;37421;51.176;17.196;2022-11-20T14:55:38;15.10;86.20
51337;DHT22;37421;51.176;17.196;2022-11-20T14:58:25;15.10;86.30
51337;DHT22;37421;51.176;17.196;2022-11-20T15:00:58;15.10;87.40
51337;DHT22;37421;51.176;17.196;2022-11-20T15:03:41;15.10;86.70
51337;DHT22;37421;51.176;17.196;2022-11-20T15:06:14;15.00;86.40
51337;DHT22;37421;51.176;17.196;2022-11-20T15:08:58;15.00;87.10
51337;DHT22;37421;51.176;17.196;2022-11-20T15:11:35;15.00;86.70
51337;DHT22;37421;51.176;17.196;2022-11-20T15:14:10;15.00;86.00
51337;DHT22;37421;51.176;17.196;2022-11-20T15:16:36;15.00;86.80
51337;DHT22;37421;51.176;17.196;2022-11-20T15:19:37;14.90;86.10
51337;DHT22;37421;51.176;17.196;2022-11-20T15:22:14;14.90;87.00
51337;DHT22;37421;51.176;17.196;2022-11-20T15:24:53;14.90;86.50
51337;DHT22;37421;51.176;17.196;2022-11-20T15:27:24;14.90;86.50
51337;DHT22;37421;51.176;17.196;2022-11-20T15:29:59;14.90;86.70
51337;DHT22;37421;51.176;17.196;2022-11-20T15:32:40;14.90;88.10
51337;DHT22;37421;51.176;17.196;2022-11-20T15:35:14;14.90;87.60
51337;DHT22;37421;51.176;17.196;2022-11-20T15:38:05;14.90;88.30
51337;DHT22;37421;51.176;17.196;2022-11-20T15:43:56;14.80;87.30
51337;DHT22;37421;51.176;17.196;2022-11-20T15:46:31;14.70;87.50
51337;DHT22;37421;51.176;17.196;2022-11-20T15:49:22;14.70;87.70
51337;DHT22;37421;51.176;17.196;2022-11-20T15:51:54;14.70;87.00
51337;DHT22;37421;51.176;17.196;2022-11-20T15:54:51;14.60;87.10
51337;DHT22;37421;51.176;17.196;2022-11-20T15:57:24;14.60;87.90
51337;DHT22;37421;51.176;17.196;2022-11-20T16:00:07;14.60;87.90
51337;DHT22;37421;51.176;17.196;2022-11-20T16:02:43;14.50;88.80
51337;DHT22;37421;51.176;17.196;2022-11-20T16:05:44;14.40;87.90
51337;DHT22;37421;51.176;17.196;2022-11-20T16:08:13;14.40;88.60
51337;DHT22;37421;51.176;17.196;2022-11-20T16:10:46;14.30;88.40
51337;DHT22;37421;51.176;17.196;2022-11-20T16:13:18;14.30;89.70
51337;DHT22;37421;51.176;17.196;2022-11-20T16:16:26;14.30;89.90
51337;DHT22;37421;51.176;17.196;2022-11-20T16:18:57;14.20;89.20
51337;DHT22;37421;51.176;17.196;2022-11-20T16:21:31;14.20;89.10
51337;DHT22;37421;51.176;17.196;2022-11-20T16:24:12;14.20;90.00
51337;DHT22;37421;51.176;17.196;2022-11-20T16:26:43;14.20;90.50
51337;DHT22;37421;51.176;17.196;2022-11-20T16:29:19;14.10;90.10
51337;DHT22;37421;51.176;17.196;2022-11-20T16:31:51;14.10;90.50
51337;DHT22;37421;51.176;17.196;2022-11-20T16:34:47;14.10;90.50
51337;DHT22;37421;51.176;17.196;2022-11-20T16:37:27;14.10;90.60
51337;DHT22;37421;51.176;17.196;2022-11-20T16:40:48;14.00;90.40
51337;DHT22;37421;51.176;17.196;2022-11-20T17:00:08;13.90;90.80
51337;DHT22;37421;51.176;17.196;2022-11-20T17:02:57;13.90;91.00
51337;DHT22;37421;51.176;17.196;2022-11-20T17:05:32;13.90;90.80
51337;DHT22;37421;51.176;17.196;2022-11-20T17:08:19;14.00;90.70
51337;DHT22;37421;51.176;17.196;2022-11-20T17:10:51;14.00;90.00
51337;DHT22;37421;51.176;17.196;2022-11-20T17:13:27;14.10;89.80
51337;DHT22;37421;51.176;17.196;2022-11-20T17:16:30;14.10;89.30
51337;DHT22;37421;51.176;17.196;2022-11-20T17:19:02;14.10;88.60
51337;DHT22;37421;51.176;17.196;2022-11-20T17:21:40;14.20;88.10
51337;DHT22;37421;51.176;17.196;2022-11-20T17:24:24;14.20;88.90
51337;DHT22;37421;51.176;17.196;2022-11-20T17:27:15;14.20;89.60
51337;DHT22;37421;51.176;17.196;2022-11-20T17:29:47;14.20;89.00
51337;DHT22;37421;51.176;17.196;2022-11-20T17:32:23;14.30;88.10
51337;DHT22;37421;51.176;17.196;2022-11-20T17:34:52;14.30;87.80
51337;DHT22;37421;51.176;17.196;2022-11-20T17:37:21;14.40;88.10
51337;DHT22;37421;51.176;17.196;2022-11-20T17:40:14;14.40;88.60
51337;DHT22;37421;51.176;17.196;2022-11-20T17:43:01;14.50;88.00
51337;DHT22;37421;51.176;17.196;2022-11-20T17:45:26;14.60;87.40
51337;DHT22;37421;51.176;17.196;2022-11-20T17:48:00;14.70;85.90
51337;DHT22;37421;51.176;17.196;2022-11-20T17:50:37;14.90;85.60
51337;DHT22;37421;51.176;17.196;2022-11-20T17:53:17;14.90;85.10
51337;DHT22;37421;51.176;17.196;2022-11-20T17:56:06;14.90;84.90
51337;DHT22;37421;51.176;17.196;2022-11-20T17:58:53;15.00;84.70
51337;DHT22;37421;51.176;17.196;2022-11-20T18:01:22;14.90;85.10
51337;DHT22;37421;51.176;17.196;2022-11-20T18:03:51;14.90;85.70
51337;DHT22;37421;51.176;17.196;2022-11-20T18:06:43;15.00;86.90